地図

経路データ

SID SEASON NUMBER BASIN SUBBASIN NAME ISO_TIME NATURE LAT LON WMO_WIND WMO_PRES WMO_AGENCY TRACK_TYPE DIST2LAND LANDFALL IFLAG USA_AGENCY USA_ATCF_ID USA_LAT USA_LON USA_RECORD USA_STATUS USA_WIND USA_PRES USA_SSHS USA_R34_NE USA_R34_SE USA_R34_SW USA_R34_NW USA_R50_NE USA_R50_SE USA_R50_SW USA_R50_NW USA_R64_NE USA_R64_SE USA_R64_SW USA_R64_NW USA_POCI USA_ROCI USA_RMW USA_EYE TOKYO_LAT TOKYO_LON TOKYO_GRADE TOKYO_WIND TOKYO_PRES TOKYO_R50_DIR TOKYO_R50_LONG TOKYO_R50_SHORT TOKYO_R30_DIR TOKYO_R30_LONG TOKYO_R30_SHORT TOKYO_LAND CMA_LAT CMA_LON CMA_CAT CMA_WIND CMA_PRES HKO_LAT HKO_LON HKO_CAT HKO_WIND HKO_PRES NEWDELHI_LAT NEWDELHI_LON NEWDELHI_GRADE NEWDELHI_WIND NEWDELHI_PRES NEWDELHI_CI NEWDELHI_DP NEWDELHI_POCI REUNION_LAT REUNION_LON REUNION_TYPE REUNION_WIND REUNION_PRES REUNION_TNUM REUNION_CI REUNION_RMW REUNION_R34_NE REUNION_R34_SE REUNION_R34_SW REUNION_R34_NW REUNION_R50_NE REUNION_R50_SE REUNION_R50_SW REUNION_R50_NW REUNION_R64_NE REUNION_R64_SE REUNION_R64_SW REUNION_R64_NW BOM_LAT BOM_LON BOM_TYPE BOM_WIND BOM_PRES BOM_TNUM BOM_CI BOM_RMW BOM_R34_NE BOM_R34_SE BOM_R34_SW BOM_R34_NW BOM_R50_NE BOM_R50_SE BOM_R50_SW BOM_R50_NW BOM_R64_NE BOM_R64_SE BOM_R64_SW BOM_R64_NW BOM_ROCI BOM_POCI BOM_EYE BOM_POS_METHOD BOM_PRES_METHOD NADI_LAT NADI_LON NADI_CAT NADI_WIND NADI_PRES WELLINGTON_LAT WELLINGTON_LON WELLINGTON_WIND WELLINGTON_PRES DS824_LAT DS824_LON DS824_STAGE DS824_WIND DS824_PRES TD9636_LAT TD9636_LON TD9636_STAGE TD9636_WIND TD9636_PRES TD9635_LAT TD9635_LON TD9635_WIND TD9635_PRES TD9635_ROCI NEUMANN_LAT NEUMANN_LON NEUMANN_CLASS NEUMANN_WIND NEUMANN_PRES MLC_LAT MLC_LON MLC_CLASS MLC_WIND MLC_PRES USA_GUST BOM_GUST BOM_GUST_PER REUNION_GUST REUNION_GUST_PER USA_SEAHGT USA_SEARAD_NE USA_SEARAD_SE USA_SEARAD_SW USA_SEARAD_NW STORM_SPEED STORM_DIR
1888322N23305 1888 60 NA NA NOT_NAMED 1888-11-17 00:00:00 TS 23.3333 -55.4333 50 hurdat_atl main 1192 1165 O____________O hurdat_atl AL091888 23.2000 -56.0000 TS 50 0 23.6000 -54.3000 TS 50 7 295
1888322N23305 1888 60 NA NA NOT_NAMED 1888-11-17 03:00:00 TS 23.4861 -55.7931 main 1165 1144 P____________P AL091888 23.3527 -56.3148 TS 52 0 23.7528 -54.7498 TS 42 7 295
1888322N23305 1888 60 NA NA NOT_NAMED 1888-11-17 06:00:00 TS 23.6333 -56.1333 55 hurdat_atl main 1144 1123 O____________O hurdat_atl AL091888 23.5000 -56.6000 TS 55 0 23.9000 -55.2000 TS 35 7 296
1888322N23305 1888 60 NA NA NOT_NAMED 1888-11-17 09:00:00 TS 23.7757 -56.4452 main 1128 1108 P____________P AL091888 23.6423 -56.8427 TS 57 0 24.0424 -55.6502 TS 37 7 297
1888322N23305 1888 60 NA NA NOT_NAMED 1888-11-17 12:00:00 TS 23.9333 -56.7667 60 hurdat_atl main 1099 1086 O____________O hurdat_atl AL091888 23.8000 -57.1000 TS 60 0 24.2000 -56.1000 TS 40 7 299
1888322N23305 1888 60 NA NA NOT_NAMED 1888-11-17 15:00:00 TS 24.1258 -57.1400 main 1086 1066 P____________P AL091888 23.9925 -57.4350 TS 60 0 24.3924 -56.5501 TS 42 8 300
1888322N23305 1888 60 NA NA NOT_NAMED 1888-11-17 18:00:00 TS 24.3333 -57.5333 60 hurdat_atl main 1066 1048 O____________O hurdat_atl AL091888 24.2000 -57.8000 TS 60 0 24.6000 -57.0000 TS 45 8 300
1888322N23305 1888 60 NA NA NOT_NAMED 1888-11-17 21:00:00 TS 24.5407 -57.9167 main 1048 1031 P____________P AL091888 24.4074 -58.1500 TS 60 0 24.8074 -57.4501 TS 47 8 300
1888322N23305 1888 60 NA NA NOT_NAMED 1888-11-18 00:00:00 TS 24.7333 -58.3000 60 hurdat_atl main 1031 1017 O____________O hurdat_atl AL091888 24.6000 -58.5000 TS 60 0 25.0000 -57.9000 TS 50 8 297
1888322N23305 1888 60 NA NA NOT_NAMED 1888-11-18 03:00:00 TS 24.8933 -58.6885 main 1017 1004 P____________P AL091888 24.7650 -58.8576 TS 60 0 25.1499 -58.3503 TS 52 8 293
1888322N23305 1888 60 NA NA NOT_NAMED 1888-11-18 06:00:00 TS 25.0333 -59.0667 60 hurdat_atl main 997 991 O____________O hurdat_atl AL091888 24.9000 -59.2000 TS 60 0 25.3000 -58.8000 TS 55 7 293
1888322N23305 1888 60 NA NA NOT_NAMED 1888-11-18 09:00:00 TS 25.1765 -59.4167 main 993 980 P____________P AL091888 25.0148 -59.5001 TS 60 0 25.4999 -59.2500 TS 55 7 293
1888322N23305 1888 60 NA NA NOT_NAMED 1888-11-18 12:00:00 TS 25.3000 -59.7667 60 hurdat_atl main 975 963 O____________O hurdat_atl AL091888 25.1000 -59.8000 TS 60 0 25.7000 -59.7000 TS 55 7 288
1888322N23305 1888 60 NA NA NOT_NAMED 1888-11-18 15:00:00 TS 25.3883 -60.1451 main 966 948 P____________P AL091888 25.1575 -60.1426 TS 60 0 25.8499 -60.1503 TS 55 7 284
1888322N23305 1888 60 NA NA NOT_NAMED 1888-11-18 18:00:00 TS 25.4667 -60.5333 60 hurdat_atl main 951 929 O____________O hurdat_atl AL091888 25.2000 -60.5000 TS 60 0 26.0000 -60.6000 TS 55 7 284
1888322N23305 1888 60 NA NA NOT_NAMED 1888-11-18 21:00:00 TS 25.5665 -60.9142 main 939 923 P____________P AL091888 25.2499 -60.8500 TS 60 0 26.1998 -61.0425 TS 57 7 286
1888322N23305 1888 60 NA NA NOT_NAMED 1888-11-19 00:00:00 TS 25.6667 -61.3000 60 hurdat_atl main 928 909 O____________O hurdat_atl AL091888 25.3000 -61.2000 TS 60 0 26.4000 -61.5000 TS 60 7 285
1888322N23305 1888 60 NA NA NOT_NAMED 1888-11-19 03:00:00 TS 25.7499 -61.7001 main 909 902 P____________P AL091888 25.3499 -61.5500 TS 60 0 26.5500 -62.0003 TS 62 7 283
1888322N23305 1888 60 NA NA NOT_NAMED 1888-11-19 06:00:00 TS 25.8333 -62.1000 60 hurdat_atl main 902 897 O____________O hurdat_atl AL091888 25.4000 -61.9000 TS 60 0 26.7000 -62.5000 HU 65 7 284
1888322N23305 1888 60 NA NA NOT_NAMED 1888-11-19 09:00:00 TS 25.9282 -62.4809 main 897 897 P____________P AL091888 25.4424 -62.2426 TS 60 0 26.8998 -62.9575 HU 67 7 286
1888322N23305 1888 60 NA NA NOT_NAMED 1888-11-19 12:00:00 TS 26.0333 -62.8667 60 hurdat_atl main 893 892 O____________O hurdat_atl AL091888 25.5000 -62.6000 TS 60 0 27.1000 -63.4000 HU 70 7 286
1888322N23305 1888 60 NA NA NOT_NAMED 1888-11-19 15:00:00 TS 26.1399 -63.2785 main 892 892 P____________P AL091888 25.5850 -62.9926 TS 60 0 27.2499 -63.8503 HU 70 8 287
1888322N23305 1888 60 NA NA NOT_NAMED 1888-11-19 18:00:00 TS 26.2667 -63.7000 60 hurdat_atl main 904 900 O____________O hurdat_atl AL091888 25.7000 -63.4000 TS 60 0 27.4000 -64.3000 HU 70 8 291
1888322N23305 1888 60 NA NA NOT_NAMED 1888-11-19 21:00:00 TS 26.4282 -64.1167 main 907 905 P____________P AL091888 25.8424 -63.8000 TS 60 0 27.5999 -64.7500 HU 72 8 294
1888322N23305 1888 60 NA NA NOT_NAMED 1888-11-20 00:00:00 TS 26.6000 -64.5333 60 hurdat_atl main 923 921 O____________O hurdat_atl AL091888 26.0000 -64.2000 TS 60 0 27.8000 -65.2000 HU 75 8 293
1888322N23305 1888 60 NA NA NOT_NAMED 1888-11-20 03:00:00 TS 26.7449 -64.9552 main 929 929 P____________P AL091888 26.1424 -64.6076 TS 60 0 27.9499 -65.6503 HU 75 8 292
1888322N23305 1888 60 NA NA NOT_NAMED 1888-11-20 06:00:00 TS 26.9000 -65.3667 60 hurdat_atl main 938 933 O____________O hurdat_atl AL091888 26.3000 -65.0000 TS 60 0 28.1000 -66.1000 HU 75 8 296
1888322N23305 1888 60 NA NA NOT_NAMED 1888-11-20 09:00:00 TS 27.1075 -65.7998 main 941 936 P____________P AL091888 26.5074 -65.3574 TS 60 0 28.3077 -66.6844 HU 77 8 300
1888322N23305 1888 60 NA NA NOT_NAMED 1888-11-20 12:00:00 TS 27.3000 -66.1333 60 hurdat_atl main 947 943 O____________O hurdat_atl AL091888 26.7000 -65.7000 TS 60 0 28.5000 -67.0000 HU 80 5 307
1888322N23305 1888 60 NA NA NOT_NAMED 1888-11-20 15:00:00 TS 27.4175 -66.2669 main 949 949 P____________P AL091888 26.8149 -66.0502 TS 62 0 28.6226 -66.7004 HU 80 2 299
1888322N23305 1888 60 NA NA NOT_NAMED 1888-11-20 18:00:00 TS 27.3909 -66.3182 65 hurdat_atl main 949 931 O____________O hurdat_atl AL091888 26.9000 -66.4000 HU 65 1 28.7000 -66.1000 HU 80 2 249
1888322N23305 1888 60 NA NA NOT_NAMED 1888-11-20 21:00:00 TS 27.3394 -66.4967 main 931 920 P____________P AL091888 26.9848 -66.7353 HU 65 1 28.7551 -65.5249 HU 82 5 258
1888322N23305 1888 60 NA NA NOT_NAMED 1888-11-21 00:00:00 TS 27.2889 -66.8667 65 hurdat_atl main 916 880 O____________O hurdat_atl AL091888 27.1000 -67.1000 HU 65 1 28.8000 -65.0000 HU 85 9 268
1888322N23305 1888 60 NA NA NOT_NAMED 1888-11-21 03:00:00 TS 27.3001 -67.5497 main 880 863 P_____________ AL091888 27.3001 -67.5497 HU 67 1 HU 10 282
1888322N23305 1888 60 NA NA NOT_NAMED 1888-11-21 06:00:00 TS 27.5000 -68.0000 70 hurdat_atl main 866 858 O_____________ hurdat_atl AL091888 27.5000 -68.0000 HU 70 1 8 293
1888322N23305 1888 60 NA NA NOT_NAMED 1888-11-21 09:00:00 TS 27.5997 -68.3579 main 853 846 P_____________ AL091888 27.5997 -68.3579 HU 70 1 7 288
1888322N23305 1888 60 NA NA NOT_NAMED 1888-11-21 12:00:00 TS 27.7000 -68.7000 70 hurdat_atl main 846 840 O_____________ hurdat_atl AL091888 27.7000 -68.7000 HU 70 1 7 295
1888322N23305 1888 60 NA NA NOT_NAMED 1888-11-21 15:00:00 TS 27.8923 -69.0774 main 845 841 P_____________ AL091888 27.8923 -69.0774 HU 70 1 8 300
1888322N23305 1888 60 NA NA NOT_NAMED 1888-11-21 18:00:00 TS 28.1000 -69.5000 70 hurdat_atl main 848 838 O_____________ hurdat_atl AL091888 28.1000 -69.5000 HU 70 1 9 294
1888322N23305 1888 60 NA NA NOT_NAMED 1888-11-21 21:00:00 TS 28.2501 -69.9927 main 849 830 P_____________ AL091888 28.2501 -69.9927 HU 72 1 9 289
1888322N23305 1888 60 NA NA NOT_NAMED 1888-11-22 00:00:00 TS 28.4000 -70.5000 75 hurdat_atl main 830 799 O_____________ hurdat_atl AL091888 28.4000 -70.5000 HU 75 1 9 292
1888322N23305 1888 60 NA NA NOT_NAMED 1888-11-22 03:00:00 TS 28.5848 -70.9577 main 796 772 P_____________ AL091888 28.5848 -70.9577 HU 75 1 9 297
1888322N23305 1888 60 NA NA NOT_NAMED 1888-11-22 06:00:00 TS 28.8000 -71.4000 75 hurdat_atl main 772 752 O_____________ hurdat_atl AL091888 28.8000 -71.4000 HU 75 1 9 301
1888322N23305 1888 60 NA NA NOT_NAMED 1888-11-22 09:00:00 TS 29.0575 -71.8723 main 750 720 P_____________ AL091888 29.0575 -71.8723 HU 77 1 9 302
1888322N23305 1888 60 NA NA NOT_NAMED 1888-11-22 12:00:00 TS 29.3000 -72.3000 80 hurdat_atl main 720 686 O_____________ hurdat_atl AL091888 29.3000 -72.3000 HU 80 1 8 302
1888322N23305 1888 60 NA NA NOT_NAMED 1888-11-22 15:00:00 TS 29.4723 -72.6228 main 686 661 P_____________ AL091888 29.4723 -72.6228 HU 80 1 6 300
1888322N23305 1888 60 NA NA NOT_NAMED 1888-11-22 18:00:00 TS 29.6000 -72.9000 80 hurdat_atl main 661 637 O_____________ hurdat_atl AL091888 29.6000 -72.9000 HU 80 1 5 295
1888322N23305 1888 60 NA NA NOT_NAMED 1888-11-22 21:00:00 TS 29.6999 -73.1927 main 637 614 P_____________ AL091888 29.6999 -73.1927 HU 80 1 6 291
1888322N23305 1888 60 NA NA NOT_NAMED 1888-11-23 00:00:00 TS 29.8000 -73.5000 80 hurdat_atl main 614 592 O_____________ hurdat_atl AL091888 29.8000 -73.5000 HU 80 1 6 292
1888322N23305 1888 60 NA NA NOT_NAMED 1888-11-23 03:00:00 TS 29.9351 -73.8575 main 588 554 P_____________ AL091888 29.9351 -73.8575 HU 82 1 7 296
1888322N23305 1888 60 NA NA NOT_NAMED 1888-11-23 06:00:00 TS 30.1000 -74.2000 85 hurdat_atl main 554 519 O_____________ hurdat_atl AL091888 30.1000 -74.2000 HU 85 2 6 303
1888322N23305 1888 60 NA NA NOT_NAMED 1888-11-23 09:00:00 TS 30.2849 -74.4726 main 519 489 P_____________ AL091888 30.2849 -74.4726 HU 85 2 6 313
1888322N23305 1888 60 NA NA NOT_NAMED 1888-11-23 12:00:00 TS 30.5000 -74.7000 85 hurdat_atl main 489 460 O_____________ hurdat_atl AL091888 30.5000 -74.7000 HU 85 2 6 321
1888322N23305 1888 60 NA NA NOT_NAMED 1888-11-23 15:00:00 TS 30.7424 -74.9076 main 460 422 P_____________ AL091888 30.7424 -74.9076 HU 85 2 6 325
1888322N23305 1888 60 NA NA NOT_NAMED 1888-11-23 18:00:00 TS 31.0000 -75.1000 85 hurdat_atl main 422 393 O_____________ hurdat_atl AL091888 31.0000 -75.1000 HU 85 2 6 326
1888322N23305 1888 60 NA NA NOT_NAMED 1888-11-23 21:00:00 TS 31.2425 -75.3076 main 393 355 P_____________ AL091888 31.2425 -75.3076 HU 85 2 6 326
1888322N23305 1888 60 NA NA NOT_NAMED 1888-11-24 00:00:00 TS 31.5000 -75.5000 85 hurdat_atl main 355 317 O_____________ hurdat_atl AL091888 31.5000 -75.5000 HU 85 2 6 330
1888322N23305 1888 60 NA NA NOT_NAMED 1888-11-24 03:00:00 TS 31.7925 -75.6873 main 317 286 P_____________ AL091888 31.7925 -75.6873 HU 85 2 7 337
1888322N23305 1888 60 NA NA NOT_NAMED 1888-11-24 06:00:00 TS 32.1000 -75.8000 85 hurdat_atl main 286 264 O_____________ hurdat_atl AL091888 32.1000 -75.8000 HU 85 2 6 352
1888322N23305 1888 60 NA NA NOT_NAMED 1888-11-24 09:00:00 TS 32.4150 -75.7877 main 264 234 P_____________ AL091888 32.4150 -75.7877 HU 85 2 6 8
1888322N23305 1888 60 NA NA NOT_NAMED 1888-11-24 12:00:00 TS 32.7000 -75.7000 85 hurdat_atl main 234 217 O_____________ hurdat_atl AL091888 32.7000 -75.7000 HU 85 2 5 17
1888322N23305 1888 60 NA NA NOT_NAMED 1888-11-24 15:00:00 TS 32.9075 -75.6149 main 217 200 P_____________ AL091888 32.9075 -75.6149 HU 85 2 4 23
1888322N23305 1888 60 NA NA NOT_NAMED 1888-11-24 18:00:00 TS 33.1000 -75.5000 85 hurdat_atl main 200 186 O_____________ hurdat_atl AL091888 33.1000 -75.5000 HU 85 2 5 26
1888322N23305 1888 60 NA NA NOT_NAMED 1888-11-24 21:00:00 TS 33.3500 -75.3501 main 176 171 P_____________ AL091888 33.3500 -75.3501 HU 85 2 6 27
1888322N23305 1888 60 NA NA NOT_NAMED 1888-11-25 00:00:00 TS 33.6000 -75.2000 85 hurdat_atl main 171 162 O_____________ hurdat_atl AL091888 33.6000 -75.2000 HU 85 2 5 25
1888322N23305 1888 60 NA NA NOT_NAMED 1888-11-25 03:00:00 TS 33.7999 -75.0998 main 162 155 P_____________ AL091888 33.7999 -75.0998 HU 85 2 4 23
1888322N23305 1888 60 NA NA NOT_NAMED 1888-11-25 06:00:00 TS 34.0000 -75.0000 85 hurdat_atl main 155 148 O_____________ hurdat_atl AL091888 34.0000 -75.0000 HU 85 2 5 24
1888322N23305 1888 60 NA NA NOT_NAMED 1888-11-25 09:00:00 TS 34.2199 -74.8722 main 149 147 P_____________ AL091888 34.2199 -74.8722 HU 85 2 6 26
1888322N23305 1888 60 NA NA NOT_NAMED 1888-11-25 12:00:00 TS 34.5000 -74.7000 85 hurdat_atl main 152 133 O_____________ hurdat_atl AL091888 34.5000 -74.7000 HU 85 2 7 27
1888322N23305 1888 60 NA NA NOT_NAMED 1888-11-25 15:00:00 TS 34.8775 -74.4725 main 133 126 P_____________ AL091888 34.8775 -74.4725 HU 85 2 9 27
1888322N23305 1888 60 NA NA NOT_NAMED 1888-11-25 18:00:00 TS 35.3000 -74.2000 85 hurdat_atl main 129 125 O_____________ hurdat_atl AL091888 35.3000 -74.2000 HU 85 2 9 29
1888322N23305 1888 60 NA NA NOT_NAMED 1888-11-25 21:00:00 TS 35.6925 -73.9072 main 144 143 P_____________ AL091888 35.6925 -73.9072 HU 82 1 9 31
1888322N23305 1888 60 NA NA NOT_NAMED 1888-11-26 00:00:00 ET 36.1000 -73.6000 80 hurdat_atl main 173 173 O_____________ hurdat_atl AL091888 36.1000 -73.6000 EX 80 -4 10 30
1888322N23305 1888 60 NA NA NOT_NAMED 1888-11-26 03:00:00 ET 36.5349 -73.3070 main 211 211 P_____________ AL091888 36.5349 -73.3070 EX 80 -4 10 28
1888322N23305 1888 60 NA NA NOT_NAMED 1888-11-26 06:00:00 ET 37.0000 -73.0000 80 hurdat_atl main 234 224 O_____________ hurdat_atl AL091888 37.0000 -73.0000 EX 80 -4 11 28
1888322N23305 1888 60 NA NA NOT_NAMED 1888-11-26 09:00:00 ET 37.5301 -72.6356 main 236 232 P_____________ AL091888 37.5301 -72.6356 EX 80 -4 11 29
1888322N23305 1888 60 NA NA NOT_NAMED 1888-11-26 12:00:00 ET 38.0000 -72.3000 80 hurdat_atl main 240 231 O_____________ hurdat_atl AL091888 38.0000 -72.3000 EX 80 -4 8 30
1888322N23305 1888 60 NA NA NOT_NAMED 1888-11-26 15:00:00 ET 38.2647 -72.0987 main 232 232 P_____________ AL091888 38.2647 -72.0987 EX 80 -4 6 32
1888322N23305 1888 60 NA NA NOT_NAMED 1888-11-26 18:00:00 ET 38.5000 -71.9000 80 hurdat_atl main 234 227 O_____________ hurdat_atl AL091888 38.5000 -71.9000 EX 80 -4 7 33
1888322N23305 1888 60 NA NA NOT_NAMED 1888-11-26 21:00:00 ET 38.8850 -71.5802 main 227 204 P_____________ AL091888 38.8850 -71.5802 EX 80 -4 10 34
1888322N23305 1888 60 NA NA NOT_NAMED 1888-11-27 00:00:00 ET 39.3000 -71.2000 80 hurdat_atl main 204 196 O_____________ hurdat_atl AL091888 39.3000 -71.2000 EX 80 -4 10 38
1888322N23305 1888 60 NA NA NOT_NAMED 1888-11-27 03:00:00 ET 39.6575 -70.7997 main 195 168 P_____________ AL091888 39.6575 -70.7997 EX 80 -4 9 41
1888322N23305 1888 60 NA NA NOT_NAMED 1888-11-27 06:00:00 ET 40.0000 -70.4000 80 hurdat_atl main 168 142 O_____________ hurdat_atl AL091888 40.0000 -70.4000 EX 80 -4 9 41
1888322N23305 1888 60 NA NA NOT_NAMED 1888-11-27 09:00:00 ET 40.3424 -70.0345 main 145 114 P_____________ AL091888 40.3424 -70.0345 EX 80 -4 9 37
1888322N23305 1888 60 NA NA NOT_NAMED 1888-11-27 12:00:00 ET 40.7000 -69.7000 80 hurdat_atl main 114 83 O_____________ hurdat_atl AL091888 40.7000 -69.7000 EX 80 -4 9 33
1888322N23305 1888 60 NA NA NOT_NAMED 1888-11-27 15:00:00 ET 41.0848 -69.3994 main 83 73 P_____________ AL091888 41.0848 -69.3994 EX 80 -4 9 30
1888322N23305 1888 60 NA NA NOT_NAMED 1888-11-27 18:00:00 ET 41.5000 -69.1000 80 hurdat_atl main 77 77 O_____________ hurdat_atl AL091888 41.5000 -69.1000 EX 80 -4 10 29
1888322N23305 1888 60 NA NA NOT_NAMED 1888-11-27 21:00:00 ET 41.9424 -68.7646 main 99 99 P_____________ AL091888 41.9424 -68.7646 EX 80 -4 10 30
1888322N23305 1888 60 NA NA NOT_NAMED 1888-11-28 00:00:00 ET 42.4000 -68.4000 80 hurdat_atl main 147 147 O_____________ hurdat_atl AL091888 42.4000 -68.4000 EX 80 -4 11 31
1888322N23305 1888 60 NA NA NOT_NAMED 1888-11-28 03:00:00 ET 42.8573 -68.0219 main 147 118 P_____________ AL091888 42.8573 -68.0219 EX 80 -4 11 33
1888322N23305 1888 60 NA NA NOT_NAMED 1888-11-28 06:00:00 ET 43.3000 -67.6000 80 hurdat_atl main 118 80 O_____________ hurdat_atl AL091888 43.3000 -67.6000 EX 80 -4 11 37
1888322N23305 1888 60 NA NA NOT_NAMED 1888-11-28 09:00:00 ET 43.7145 -67.1441 main 72 31 P_____________ AL091888 43.7145 -67.1441 EX 80 -4 11 42
1888322N23305 1888 60 NA NA NOT_NAMED 1888-11-28 12:00:00 ET 44.1000 -66.6000 80 hurdat_atl main 31 0 O_____________ hurdat_atl AL091888 44.1000 -66.6000 EX 80 -4 11 49
1888322N23305 1888 60 NA NA NOT_NAMED 1888-11-28 15:00:00 ET 44.4571 -65.9515 main 7 0 P_____________ AL091888 44.4571 -65.9515 EX 75 -4 12 55
1888322N23305 1888 60 NA NA NOT_NAMED 1888-11-28 18:00:00 ET 44.8000 -65.2000 70 hurdat_atl main 0 0 O_____________ hurdat_atl AL091888 44.8000 -65.2000 EX 70 -4 13 58
1888322N23305 1888 60 NA NA NOT_NAMED 1888-11-28 21:00:00 ET 45.1647 -64.3799 main 0 0 P_____________ AL091888 45.1647 -64.3799 EX 65 -4 14 60
1888322N23305 1888 60 NA NA NOT_NAMED 1888-11-29 00:00:00 ET 45.5000 -63.5000 60 hurdat_atl main 0 0 O_____________ hurdat_atl AL091888 45.5000 -63.5000 EX 60 -4 14 64
1888322N23305 1888 60 NA NA NOT_NAMED 1888-11-29 03:00:00 ET 45.7721 -62.5991 main 19 7 P_____________ AL091888 45.7721 -62.5991 EX 55 -4 13 68
1888322N23305 1888 60 NA NA NOT_NAMED 1888-11-29 06:00:00 ET 46.0000 -61.7000 50 hurdat_atl main 7 0 O_____________ hurdat_atl AL091888 46.0000 -61.7000 EX 50 -4 13 70
1888322N23305 1888 60 NA NA NOT_NAMED 1888-11-29 09:00:00 ET 46.2148 -60.8121 main 0 0 P_____________ AL091888 46.2148 -60.8121 EX 47 -4 12 71
1888322N23305 1888 60 NA NA NOT_NAMED 1888-11-29 12:00:00 ET 46.4000 -60.0000 45 hurdat_atl main 22 22 O_____________ hurdat_atl AL091888 46.4000 -60.0000 EX 45 -4 11 71
1888322N23305 1888 60 NA NA NOT_NAMED 1888-11-29 15:00:00 ET 46.5642 -59.3119 main 58 58 P_____________ AL091888 46.5642 -59.3119 EX 45 -4 9 71
1888322N23305 1888 60 NA NA NOT_NAMED 1888-11-29 18:00:00 ET 46.7000 -58.7000 45 hurdat_atl main 99 88 O_____________ hurdat_atl AL091888 46.7000 -58.7000 EX 45 -4 9 74
1888322N23305 1888 60 NA NA NOT_NAMED 1888-11-29 21:00:00 ET 46.8068 -58.1069 main 91 77 P_____________ AL091888 46.8068 -58.1069 EX 45 -4 8 76
1888322N23305 1888 60 NA NA NOT_NAMED 1888-11-30 00:00:00 ET 46.9000 -57.5000 45 hurdat_atl main 77 55 O_____________ hurdat_atl AL091888 46.9000 -57.5000 EX 45 -4 9 77
1888322N23305 1888 60 NA NA NOT_NAMED 1888-11-30 03:00:00 ET 47.0067 -56.8450 main 55 13 P_____________ AL091888 47.0067 -56.8450 EX 45 -4 10 78
1888322N23305 1888 60 NA NA NOT_NAMED 1888-11-30 06:00:00 ET 47.1000 -56.1000 45 hurdat_atl main 13 0 O_____________ hurdat_atl AL091888 47.1000 -56.1000 EX 45 -4 11 82
1888322N23305 1888 60 NA NA NOT_NAMED 1888-11-30 09:00:00 ET 47.1640 -55.2674 main 0 0 P_____________ AL091888 47.1640 -55.2674 EX 45 -4 12 85
1888322N23305 1888 60 NA NA NOT_NAMED 1888-11-30 12:00:00 ET 47.2000 -54.3000 45 hurdat_atl main 22 0 O_____________ hurdat_atl AL091888 47.2000 -54.3000 EX 45 -4 14 88
1888322N23305 1888 60 NA NA NOT_NAMED 1888-11-30 15:00:00 ET 47.2074 -53.1870 main 0 0 P_____________ AL091888 47.2074 -53.1870 EX 45 -4 16 90
1888322N23305 1888 60 NA NA NOT_NAMED 1888-11-30 18:00:00 ET 47.2000 -52.0000 45 hurdat_atl main 55 55 O_____________ hurdat_atl AL091888 47.2000 -52.0000 EX 45 -4 16 90
1888322N23305 1888 60 NA NA NOT_NAMED 1888-11-30 21:00:00 ET 47.1986 -50.8575 main 131 131 P_____________ AL091888 47.1986 -50.8575 EX 42 -4 16 90
1888322N23305 1888 60 NA NA NOT_NAMED 1888-12-01 00:00:00 ET 47.2000 -49.7000 40 hurdat_atl main 220 220 O_____________ hurdat_atl AL091888 47.2000 -49.7000 EX 40 -4 16 90
1888322N23305 1888 60 NA NA NOT_NAMED 1888-12-01 03:00:00 ET 47.1992 -48.5000 main 309 309 P_____________ AL091888 47.1992 -48.5000 EX 45 -4 16 90
1888322N23305 1888 60 NA NA NOT_NAMED 1888-12-01 06:00:00 ET 47.2000 -47.3000 50 hurdat_atl main 398 398 O_____________ hurdat_atl AL091888 47.2000 -47.3000 EX 50 -4 16 90
1888322N23305 1888 60 NA NA NOT_NAMED 1888-12-01 09:00:00 ET 47.1986 -46.1425 main 488 488 P_____________ AL091888 47.1986 -46.1425 EX 52 -4 16 90
1888322N23305 1888 60 NA NA NOT_NAMED 1888-12-01 12:00:00 ET 47.2000 -45.0000 55 hurdat_atl main 570 570 O_____________ hurdat_atl AL091888 47.2000 -45.0000 EX 55 -4 16 90
1888322N23305 1888 60 NA NA NOT_NAMED 1888-12-01 15:00:00 ET 47.1914 -43.8495 main 660 660 P_____________ AL091888 47.1914 -43.8495 EX 55 -4 16 90
1888322N23305 1888 60 NA NA NOT_NAMED 1888-12-01 18:00:00 ET 47.2000 -42.7000 55 hurdat_atl main 742 742 O_____________ hurdat_atl AL091888 47.2000 -42.7000 EX 55 -4 16 88
1888322N23305 1888 60 NA NA NOT_NAMED 1888-12-01 21:00:00 ET 47.2414 -41.5503 main 825 825 P_____________ AL091888 47.2414 -41.5503 EX 57 -4 16 86
1888322N23305 1888 60 NA NA NOT_NAMED 1888-12-02 00:00:00 ET 47.3000 -40.4000 60 hurdat_atl main 913 913 O_____________ hurdat_atl AL091888 47.3000 -40.4000 EX 60 -4 16 86
1888322N23305 1888 60 NA NA NOT_NAMED 1888-12-02 03:00:00 ET 47.3489 -39.2498 main 1003 1002 P_____________ AL091888 47.3489 -39.2498 EX 60 -4 16 86
1888322N23305 1888 60 NA NA NOT_NAMED 1888-12-02 06:00:00 ET 47.4000 -38.1000 60 hurdat_atl main 1084 1084 O_____________ hurdat_atl AL091888 47.4000 -38.1000 EX 60 -4 15 87
1888322N23305 1888 60 NA NA NOT_NAMED 1888-12-02 09:00:00 ET 47.4184 -36.9626 main 1165 1165 P_____________ AL091888 47.4184 -36.9626 EX 60 -4 16 86
1888322N23305 1888 60 NA NA NOT_NAMED 1888-12-02 12:00:00 ET 47.5000 -35.8000 60 hurdat_atl main 1254 1254 O_____________ hurdat_atl AL091888 47.5000 -35.8000 EX 60 -4 16 80
1888322N23305 1888 60 NA NA NOT_NAMED 1888-12-02 15:00:00 ET 47.7131 -34.5745 main 1340 1340 P_____________ AL091888 47.7131 -34.5745 EX 60 -4 17 73
1888322N23305 1888 60 NA NA NOT_NAMED 1888-12-02 18:00:00 ET 48.0000 -33.3000 60 hurdat_atl main 1433 O_____________ hurdat_atl AL091888 48.0000 -33.3000 EX 60 -4 18 71

IBTrACS Databaseについて

本データベースは、米国NOAAが公開する1842年以降の世界の熱帯低気圧のベストトラックデータアーカイブInternational Best Track Archive for Climate Stewardship (IBTrACS)を、ウェブで閲覧しやすい形式に変換したものです。

最終更新日:2021-12-06